Walnut Hill, Florida
Current Conditions -  °F | °C
As of 1:56 AM on Thursday 29 Jan 2015 (Local Time) from KNSE Reporting Station
Clear Clear  
Wind Chill:   Ceiling: Unl
Heat Index:   Visibility: 10mi
Dew Point:   Wind: 5mph
Humidity: 82%   Direction: 100°E
Pressure: 30.26"   Gusts: NA
Location:  30.8697°N, 87.4663°W
Report Text: KNSE 290756Z AUTO 10004KT 10SM CLR 06/03 A3026 RMK AO2 SLP234 T00560028 $
Loading
Personal Weather Stations






























Interactive Weather Map New forecast layout! Learn more

10-Day Weather Forecast

Advertisements
Track Severe Weather on mobile